Time;durP1;ratioP1;P1;durP2;ratioP2;P2;SDS_P1;SDS_P2;PMS_P1;PMS_P2;Temp;Humidity;BMP_temperature;BMP_pressure;BME280_temperature;BME280_humidity;BME280_pressure;Samples;Min_cycle;Max_cycle;Signal;HPM_P1;HPM_P2
2022/03/25 00:01:32;;;;;;;72.50;38.10;;;;;;;6.49;76.45;102919.00;4736038;30;20176;-78
2022/03/25 00:03:58;;;;;;;61.58;36.80;;;;;;;6.79;76.22;102969.97;4736633;30;20032;-77
2022/03/25 00:06:26;;;;;;;62.78;37.40;;;;;;;6.59;76.27;102944.56;4736409;30;20037;-77
2022/03/25 00:08:52;;;;;;;64.47;39.45;;;;;;;6.41;76.93;102921.69;4734950;30;20490;-78
2022/03/25 00:11:17;;;;;;;67.20;39.22;;;;;;;6.37;76.92;102927.69;4736141;30;20036;-77
2022/03/25 00:13:43;;;;;;;60.30;37.00;;;;;;;6.40;77.30;102942.25;4735115;30;20044;-77
2022/03/25 00:16:09;;;;;;;67.57;40.00;;;;;;;6.36;77.38;102938.00;4736524;30;20055;-77
2022/03/25 00:18:37;;;;;;;63.75;37.40;;;;;;;6.02;76.77;102918.69;4735134;30;20064;-78
2022/03/25 00:21:05;;;;;;;67.40;39.00;;;;;;;5.99;77.77;102923.84;4736359;30;20414;-78
2022/03/25 00:37:19;;;;;;;63.45;37.28;;;;;;;5.00;77.25;102776.13;4681718;30;20042;-78
2022/03/25 00:43:09;;;;;;;61.85;35.92;;;;;;;5.50;78.18;102879.84;4682240;30;20212;-77
2022/03/25 00:45:35;;;;;;;60.03;35.08;;;;;;;5.44;78.11;102877.34;4681825;30;20112;-79
2022/03/25 00:48:03;;;;;;;62.88;36.05;;;;;;;5.82;78.72;102968.44;4681909;30;20551;-77
2022/03/25 00:50:28;;;;;;;62.78;36.65;;;;;;;5.80;78.78;102976.16;4681761;30;20169;-78
2022/03/25 00:52:55;;;;;;;61.58;36.67;;;;;;;5.58;78.79;102931.03;4681331;30;20038;-78
2022/03/25 00:55:25;;;;;;;62.33;36.58;;;;;;;5.66;78.65;102947.22;4681784;30;20125;-78
2022/03/25 00:58:09;;;;;;;56.65;35.67;;;;;;;5.82;78.13;102966.72;4681463;30;20198;-77
2022/03/25 01:00:59;;;;;;;59.88;34.05;;;;;;;5.87;78.00;102964.97;4681325;30;20137;-78
2022/03/25 01:07:27;;;;;;;55.60;34.03;;;;;;;5.82;77.32;102969.28;4735374;30;20521;-79
2022/03/25 01:09:53;;;;;;;56.13;34.33;;;;;;;5.47;77.19;102921.72;4735435;30;20094;-78
2022/03/25 01:12:34;;;;;;;54.60;32.90;;;;;;;5.33;77.37;102908.19;4734992;30;20440;-78
2022/03/25 01:18:24;;;;;;;57.65;33.58;;;;;;;5.62;77.82;102968.63;4735290;30;20059;-77
2022/03/25 01:21:07;;;;;;;52.70;33.05;;;;;;;5.10;77.81;102903.22;4735360;30;20063;-78
2022/03/25 01:23:52;;;;;;;60.38;33.35;;;;;;;5.01;77.68;102897.31;4733771;30;20413;-78
2022/03/25 01:26:20;;;;;;;58.65;32.80;;;;;;;5.33;77.67;102945.78;4735278;30;20029;-77
2022/03/25 01:28:45;;;;;;;59.33;32.42;;;;;;;5.40;78.00;102966.19;4734991;30;20036;-77
2022/03/25 01:31:11;;;;;;;57.63;33.97;;;;;;;5.09;77.56;102919.44;4735152;30;20128;-88
2022/03/25 01:33:37;;;;;;;52.50;31.67;;;;;;;5.28;77.97;102961.16;4735114;30;20075;-78
2022/03/25 01:36:03;;;;;;;54.40;33.60;;;;;;;5.25;77.35;102950.94;4735056;30;20024;-89
2022/03/25 01:38:29;;;;;;;56.53;32.40;;;;;;;4.92;77.31;102887.13;4734857;30;20098;-87
2022/03/25 01:40:54;;;;;;;57.00;31.70;;;;;;;5.47;76.74;102974.69;4733730;30;20059;-78
2022/03/25 01:43:19;;;;;;;50.67;32.08;;;;;;;5.25;76.52;102915.09;4734824;30;20075;-78
2022/03/25 01:45:45;;;;;;;53.05;31.73;;;;;;;5.47;75.95;102949.91;4734820;30;20037;-79
2022/03/25 01:48:12;;;;;;;53.30;32.88;;;;;;;5.12;76.25;102893.00;4734946;30;20033;-89
2022/03/25 01:50:39;;;;;;;55.17;32.75;;;;;;;5.34;76.11;102943.19;4734824;30;20116;-82
2022/03/25 01:53:10;;;;;;;54.50;31.27;;;;;;;5.28;75.77;102934.69;4734907;30;20119;-77
2022/03/25 01:55:36;;;;;;;;;;;;;;;5.40;75.25;102970.47;4735124;30;20040;-76
2022/03/25 01:58:05;;;;;;;55.22;30.55;;;;;;;5.39;75.09;102967.06;4734572;30;20022;-77
2022/03/25 02:00:30;;;;;;;52.38;29.55;;;;;;;4.69;74.85;102857.41;4717857;30;20053;-77
2022/03/25 02:02:56;;;;;;;53.20;30.58;;;;;;;5.18;75.10;102941.59;4717512;30;20505;-78
2022/03/25 02:05:22;;;;;;;51.58;30.23;;;;;;;4.85;74.62;102894.00;4717307;30;20475;-77
2022/03/25 02:07:47;;;;;;;52.25;28.85;;;;;;;5.27;74.51;102962.03;4717365;30;20101;-77
2022/03/25 02:10:13;;;;;;;50.28;30.10;;;;;;;4.96;74.01;102915.28;4717249;30;20116;-77
2022/03/25 02:12:39;;;;;;;50.25;29.85;;;;;;;5.20;74.32;102962.91;4717130;30;20033;-78
2022/03/25 02:15:08;;;;;;;50.28;30.00;;;;;;;4.86;74.43;102917.03;4717289;30;20501;-77
2022/03/25 02:17:34;;;;;;;46.95;28.92;;;;;;;4.66;74.35;102884.75;4717129;30;20099;-77
2022/03/25 02:19:59;;;;;;;49.53;29.75;;;;;;;4.97;74.20;102945.13;4716832;30;20479;-77
2022/03/25 02:59:28;;;;;;;48.53;28.80;;;;;;;4.05;76.46;102962.53;4614726;30;20122;-77
2022/03/25 03:01:56;;;;;;;50.78;28.48;;;;;;;3.85;76.95;102937.00;4617342;31;20055;-77
2022/03/25 03:04:23;;;;;;;48.08;27.55;;;;;;;3.66;77.36;102915.75;4629330;30;20114;-77
2022/03/25 03:06:48;;;;;;;47.75;29.90;;;;;;;3.90;76.96;102944.66;4628449;30;20105;-77
2022/03/25 03:09:14;;;;;;;49.33;29.17;;;;;;;3.96;76.62;102960.84;4629386;31;20119;-77
2022/03/25 03:11:43;;;;;;;47.38;28.50;;;;;;;3.98;75.96;102966.81;4629050;30;20062;-77
2022/03/25 03:14:08;;;;;;;52.25;30.25;;;;;;;4.08;75.76;102965.09;4629085;30;20102;-77
2022/03/25 03:16:36;;;;;;;50.13;27.75;;;;;;;4.10;75.89;102965.94;4629195;31;20036;-77
2022/03/25 03:19:01;;;;;;;50.65;29.95;;;;;;;4.11;75.30;102969.34;4615292;31;20056;-77
2022/03/25 03:21:29;;;;;;;48.20;29.20;;;;;;;3.95;75.90;102963.41;4629173;31;20042;-77
2022/03/25 03:23:55;;;;;;;50.05;29.38;;;;;;;3.66;76.85;102935.31;4629138;30;20438;-78
2022/03/25 03:26:21;;;;;;;48.65;28.92;;;;;;;3.75;76.92;102965.97;4628558;30;20187;-77
2022/03/25 03:28:46;;;;;;;50.17;28.48;;;;;;;3.55;77.78;102958.31;4628970;31;20130;-77
2022/03/25 03:31:12;;;;;;;49.00;28.60;;;;;;;3.20;78.32;102921.69;4615171;31;20040;-77
2022/03/25 03:33:38;;;;;;;51.80;27.67;;;;;;;3.38;78.92;102965.97;4707202;30;20192;-77
2022/03/25 03:36:04;;;;;;;50.38;29.42;;;;;;;3.18;79.27;102944.66;4717082;30;20033;-77
2022/03/25 03:38:30;;;;;;;49.67;29.08;;;;;;;3.15;79.45;102958.28;4719476;30;20048;-77
2022/03/25 03:40:55;;;;;;;46.67;28.80;;;;;;;3.12;79.45;102963.34;4719388;30;20029;-76
2022/03/25 03:43:21;;;;;;;50.22;29.30;;;;;;;2.97;79.21;102944.63;4719532;30;20493;-77
2022/03/25 03:45:46;;;;;;;51.95;30.02;;;;;;;2.96;79.54;102931.00;4719712;30;20112;-77
2022/03/25 03:48:12;;;;;;;54.67;31.85;;;;;;;3.12;79.34;102955.69;4719529;30;20115;-77
2022/03/25 03:50:38;;;;;;;49.28;29.13;;;;;;;2.90;79.16;102925.88;4719436;30;20029;-77
2022/03/25 03:53:03;;;;;;;54.70;30.95;;;;;;;2.98;79.13;102929.31;4703926;30;20041;-77
2022/03/25 03:55:30;;;;;;;46.55;28.13;;;;;;;3.04;79.89;102959.06;4719086;30;20072;-77
2022/03/25 03:57:55;;;;;;;51.67;29.98;;;;;;;2.89;79.84;102944.59;4719084;30;20455;-77
2022/03/25 04:00:21;;;;;;;48.30;28.80;;;;;;;2.76;79.74;102930.09;4719172;30;20130;-77
2022/03/25 04:02:46;;;;;;;49.78;28.85;;;;;;;2.70;80.14;102941.13;4719074;30;20099;-77
2022/03/25 04:05:13;;;;;;;49.50;29.48;;;;;;;2.66;80.91;102938.56;4719306;30;20095;-77
2022/03/25 04:07:48;;;;;;;53.13;31.60;;;;;;;2.82;80.25;102968.38;4719026;30;20051;-77
2022/03/25 04:10:18;;;;;;;49.75;30.23;;;;;;;2.70;80.59;102976.00;4719005;30;20041;-76
2022/03/25 04:12:44;;;;;;;51.65;29.20;;;;;;;2.66;80.87;102966.63;4719227;30;20059;-76
2022/03/25 04:15:11;;;;;;;52.72;31.13;;;;;;;2.47;81.23;102953.78;4719012;30;20538;-77
2022/03/25 04:17:38;;;;;;;51.05;30.13;;;;;;;2.37;81.09;102944.41;4718995;30;20774;-77
2022/03/25 04:20:03;;;;;;;53.53;30.33;;;;;;;2.34;81.19;102959.66;4718924;30;20033;-77
2022/03/25 04:22:29;;;;;;;52.20;30.63;;;;;;;2.46;81.60;102975.03;4718895;30;20053;-77
2022/03/25 04:24:57;;;;;;;54.92;32.40;;;;;;;2.47;81.35;102979.28;4718596;30;20078;-77
2022/03/25 04:27:23;;;;;;;58.20;33.05;;;;;;;2.39;81.45;102952.91;4718877;30;20033;-77
2022/03/25 04:29:49;;;;;;;56.40;32.50;;;;;;;2.39;81.49;102936.75;4718747;30;20033;-77
2022/03/25 04:32:14;;;;;;;55.95;33.03;;;;;;;2.66;80.36;102974.28;4718432;30;20491;-77
2022/03/25 04:34:39;;;;;;;53.45;31.33;;;;;;;2.62;80.33;102954.69;4719106;30;20060;-77
2022/03/25 04:37:05;;;;;;;55.50;32.00;;;;;;;2.82;80.33;102989.63;4718705;30;20041;-76
2022/03/25 04:39:30;;;;;;;51.95;30.98;;;;;;;2.86;80.36;102987.97;4718527;30;20029;-76
2022/03/25 04:41:56;;;;;;;58.78;33.83;;;;;;;2.65;80.03;102960.66;4718343;30;20111;-77
2022/03/25 04:44:21;;;;;;;55.30;32.83;;;;;;;2.72;80.19;102974.28;4718641;30;20467;-77
2022/03/25 04:46:46;;;;;;;58.05;33.28;;;;;;;2.75;80.43;102987.03;4718618;30;20037;-77
2022/03/25 04:49:12;;;;;;;55.58;31.77;;;;;;;2.65;80.50;102985.31;4718040;30;20045;-77
2022/03/25 04:51:37;;;;;;;52.25;30.50;;;;;;;2.50;80.74;102983.53;4717721;30;20052;-77
2022/03/25 04:54:05;;;;;;;55.63;31.27;;;;;;;2.42;81.32;102988.59;4718220;30;20025;-77
2022/03/25 04:56:30;;;;;;;51.63;29.65;;;;;;;2.32;81.40;102989.41;4718035;30;20029;-77
2022/03/25 04:58:58;;;;;;;57.25;32.33;;;;;;;2.08;81.51;102956.97;4718208;30;20040;-77
2022/03/25 05:01:24;;;;;;;53.30;31.40;;;;;;;2.20;81.67;102986.78;4718131;30;20112;-77
2022/03/25 05:03:49;;;;;;;54.03;30.80;;;;;;;2.10;82.20;102990.09;4718303;30;20538;-76
2022/03/25 05:06:14;;;;;;;56.65;31.80;;;;;;;1.99;82.52;102982.38;4718111;30;20036;-75
2022/03/25 05:08:41;;;;;;;53.88;31.27;;;;;;;1.83;82.21;102966.13;4718145;30;20051;-77
2022/03/25 05:11:07;;;;;;;52.15;31.98;;;;;;;1.92;82.63;102984.03;4702320;30;20128;-77
2022/03/25 05:13:33;;;;;;;57.20;31.80;;;;;;;1.75;82.69;102965.22;4702137;30;20063;-76
2022/03/25 05:15:58;;;;;;;58.45;31.90;;;;;;;1.84;83.48;102988.22;4702495;30;20040;-77
2022/03/25 05:18:24;;;;;;;55.22;31.05;;;;;;;1.82;83.27;102986.50;4717825;30;20048;-76
2022/03/25 05:20:50;;;;;;;56.67;32.70;;;;;;;1.78;83.59;102990.72;4717935;30;20037;-77
2022/03/25 05:23:15;;;;;;;57.92;32.10;;;;;;;1.59;83.74;102964.25;4702332;30;20029;-76
2022/03/25 05:25:41;;;;;;;60.17;32.80;;;;;;;1.40;83.67;102950.50;4717887;30;20091;-77
2022/03/25 05:28:06;;;;;;;58.83;32.80;;;;;;;1.74;83.87;102996.63;4717544;30;20033;-77
2022/03/25 05:30:35;;;;;;;57.95;34.42;;;;;;;1.75;84.09;102992.38;4717955;30;20060;-77
2022/03/25 05:33:01;;;;;;;57.65;33.05;;;;;;;1.75;84.18;102990.69;4717698;30;20390;-76
2022/03/25 05:35:28;;;;;;;56.28;31.67;;;;;;;1.52;83.90;102951.44;4717331;30;20441;-77
2022/03/25 05:37:55;;;;;;;64.95;35.47;;;;;;;1.35;84.54;102921.59;4717693;30;20095;-77
2022/03/25 05:40:22;;;;;;;61.55;33.28;;;;;;;1.27;84.23;102917.25;4717582;30;20437;-77
2022/03/25 05:42:48;;;;;;;61.58;33.38;;;;;;;1.54;84.21;102960.78;4717342;30;20470;-76
2022/03/25 05:45:14;;;;;;;57.20;31.92;;;;;;;1.80;84.08;102999.22;4717673;30;20036;-78
2022/03/25 05:47:40;;;;;;;59.70;32.67;;;;;;;1.72;84.13;102991.50;4701843;30;20033;-77
2022/03/25 05:50:08;;;;;;;63.65;33.72;;;;;;;1.59;84.10;102966.78;4717334;30;20062;-77
2022/03/25 05:52:34;;;;;;;60.78;34.17;;;;;;;1.65;84.63;102963.44;4717477;30;20088;-76
2022/03/25 05:54:59;;;;;;;65.13;35.40;;;;;;;1.91;84.39;102982.31;4701718;30;20036;-77
2022/03/25 05:57:28;;;;;;;65.90;35.55;;;;;;;1.63;84.11;102925.22;4717084;30;20475;-77
2022/03/25 05:59:57;;;;;;;67.68;38.38;;;;;;;2.07;83.77;102965.47;4716189;30;20073;-77
2022/03/25 06:02:25;;;;;;;72.13;39.25;;;;;;;2.42;84.28;103009.00;4717044;30;20089;-77
2022/03/25 06:04:51;;;;;;;71.07;38.35;;;;;;;2.63;83.81;103015.06;4701459;30;20033;-77
2022/03/25 06:07:17;;;;;;;67.05;39.15;;;;;;;2.77;83.31;103016.00;4717452;30;20076;-77
2022/03/25 06:09:42;;;;;;;64.13;37.78;;;;;;;2.88;83.05;103020.28;4717265;30;20061;-77
2022/03/25 06:12:08;;;;;;;72.20;39.50;;;;;;;2.96;82.96;103017.78;4717152;30;20049;-77
2022/03/25 06:14:34;;;;;;;72.90;39.42;;;;;;;3.03;82.83;103016.06;4717315;30;20035;-78
2022/03/25 06:16:59;;;;;;;70.10;40.13;;;;;;;3.13;82.27;103016.09;4717110;30;20041;-78
2022/03/25 06:19:25;;;;;;;69.30;38.95;;;;;;;3.05;82.27;102996.53;4717023;30;20127;-76
2022/03/25 06:21:52;;;;;;;70.45;38.70;;;;;;;3.17;82.19;103005.06;4717111;30;20029;-77
2022/03/25 06:24:17;;;;;;;72.93;39.90;;;;;;;3.39;82.05;103020.44;4717179;30;20036;-77
2022/03/25 06:26:43;;;;;;;75.47;39.88;;;;;;;3.48;81.68;103035.78;4716934;30;20446;-76
2022/03/25 06:29:09;;;;;;;75.75;40.28;;;;;;;3.52;81.74;103034.94;4716704;30;20116;-76
2022/03/25 06:31:34;;;;;;;73.85;40.95;;;;;;;3.45;81.40;103012.81;4717061;30;20048;-77
2022/03/25 06:34:00;;;;;;;75.85;40.65;;;;;;;3.74;81.49;103036.69;4716936;30;20386;-76
2022/03/25 06:36:26;;;;;;;78.40;42.83;;;;;;;3.90;80.58;103032.41;4716846;30;20123;-77
2022/03/25 07:26:54;;;;;;;78.45;43.20;;;;;;;5.38;71.12;102897.91;4720032;30;20056;-73
2022/03/25 07:29:19;;;;;;;75.45;45.25;;;;;;;5.84;72.05;102980.38;4703681;30;20234;-73
2022/03/25 07:31:44;;;;;;;78.38;46.78;;;;;;;6.07;73.07;103025.50;4719926;30;20482;-76
2022/03/25 07:34:10;;;;;;;78.32;44.92;;;;;;;6.23;72.55;103061.28;4719553;30;20474;-75
2022/03/25 07:36:35;;;;;;;80.45;47.30;;;;;;;5.89;73.56;102996.56;4703974;30;20056;-75
2022/03/25 07:49:55;;;;;;;79.63;46.42;;;;;;;6.59;73.17;103087.47;4954508;24;20122;-77
2022/03/25 07:52:44;;;;;;;79.85;46.28;;;;;;;6.67;72.59;103085.66;4736820;30;20068;-78
2022/03/25 07:55:44;;;;;;;83.57;46.47;;;;;;;6.72;72.83;103090.75;4735405;30;20389;-77
2022/03/25 07:58:27;;;;;;;78.85;46.13;;;;;;;6.36;71.86;103022.66;4736827;30;20044;-78
2022/03/25 08:01:21;;;;;;;74.25;44.40;;;;;;;5.79;71.70;102927.44;4736647;30;20043;-78
2022/03/25 08:07:54;;;;;;;74.38;43.67;;;;;;;7.03;71.64;103097.25;4736898;30;20055;-77
2022/03/25 08:13:54;;;;;;;77.93;45.72;;;;;;;6.88;71.39;103043.47;4736547;30;20086;-76
2022/03/25 08:16:19;;;;;;;77.68;44.08;;;;;;;6.99;70.89;103051.06;4736252;30;20095;-77
2022/03/25 08:18:48;;;;;;;79.70;44.55;;;;;;;6.79;70.87;102999.94;4736393;30;20064;-76
2022/03/25 08:21:54;;;;;;;77.55;45.78;;;;;;;7.54;71.38;103114.59;4736317;30;20091;-78
2022/03/25 08:30:20;;;;;;;68.93;39.58;;;;;;;6.86;68.19;102932.22;4736180;30;20048;-76
2022/03/25 08:32:51;;;;;;;67.35;40.47;;;;;;;8.03;66.78;103118.13;4736201;30;20034;-76
2022/03/25 08:35:25;;;;;;;71.78;42.40;;;;;;;7.51;66.80;103016.94;4736355;30;20043;-74
2022/03/25 08:41:18;;;;;;;69.85;41.65;;;;;;;7.82;66.14;103045.59;4735459;30;20041;-75
2022/03/25 08:43:49;;;;;;;70.13;40.33;;;;;;;7.86;66.76;103037.78;4735863;30;20043;-74
2022/03/25 08:47:04;;;;;;;70.50;41.40;;;;;;;8.43;66.28;103119.22;4719722;30;20518;-75
2022/03/25 09:18:52;;;;;;;54.92;33.80;;;;;;;9.76;59.24;103141.47;4735310;30;20071;-71
2022/03/25 09:21:17;;;;;;;54.75;32.95;;;;;;;9.86;57.38;103136.97;4735764;30;20049;-72
2022/03/25 09:23:43;;;;;;;53.70;34.47;;;;;;;9.91;57.01;103140.25;4719712;30;20406;-72
2022/03/25 09:26:09;;;;;;;58.55;35.90;;;;;;;9.67;56.77;103092.66;4719287;30;20040;-75
2022/03/25 09:28:34;;;;;;;58.97;34.67;;;;;;;10.06;56.75;103139.06;4719291;30;20406;-73
2022/03/25 10:35:11;;;;;;;37.70;24.35;;;;;;;11.77;47.61;103085.19;5620033;24;20036;-78
2022/03/25 10:37:38;;;;;;;39.35;24.88;;;;;;;11.80;47.74;103081.69;4734619;30;20052;-78
2022/03/25 11:09:45;;;;;;;42.20;26.90;;;;;;;11.90;44.34;102984.72;5732112;24;20011;-76
2022/03/25 11:12:11;;;;;;;41.95;26.08;;;;;;;12.49;44.13;103075.06;4718436;30;20057;-74
2022/03/25 11:14:37;;;;;;;44.00;27.77;;;;;;;12.60;45.12;103091.06;4720164;30;20056;-77
2022/03/25 12:19:25;;;;;;;49.70;31.05;;;;;;;13.71;45.64;103057.47;4736607;30;20091;-77
2022/03/25 12:21:57;;;;;;;48.80;29.95;;;;;;;13.41;45.10;102992.91;4735975;30;20040;-74
2022/03/25 12:24:24;;;;;;;50.45;31.67;;;;;;;13.60;43.62;103021.56;4737081;30;20494;-78
2022/03/25 12:38:20;;;;;;;55.70;32.33;;;;;;;13.99;45.05;103045.03;4732312;30;20916;-82
2022/03/25 12:40:48;;;;;;;53.53;33.28;;;;;;;14.05;43.55;103031.78;4720138;30;20502;-80
2022/03/25 12:43:13;;;;;;;54.00;33.03;;;;;;;14.04;44.34;103026.66;4719999;30;20532;-80
2022/03/25 12:45:50;;;;;;;54.45;33.85;;;;;;;13.74;43.17;102974.25;4735933;30;20033;-81
2022/03/25 12:48:20;;;;;;;54.28;33.95;;;;;;;13.85;44.58;102984.16;4736076;30;20028;-81
2022/03/25 12:50:48;;;;;;;54.88;35.63;;;;;;;14.03;44.27;103001.56;4735644;30;20031;-80
2022/03/25 12:53:14;;;;;;;51.72;33.47;;;;;;;14.00;44.84;102978.34;4735718;30;20052;-80
2022/03/25 12:55:52;;;;;;;53.47;33.10;;;;;;;14.29;42.69;103013.44;4735801;30;20033;-81
2022/03/25 12:58:20;;;;;;;52.03;31.45;;;;;;;14.47;42.55;103032.63;4736102;30;20047;-81
2022/03/25 13:01:03;;;;;;;50.40;33.08;;;;;;;14.47;42.05;103027.44;4735921;30;20048;-89
2022/03/25 13:03:33;;;;;;;48.35;31.33;;;;;;;14.45;44.06;103011.88;4719346;30;20029;-83
2022/03/25 13:06:01;;;;;;;53.42;33.63;;;;;;;14.62;44.04;103029.34;4735245;30;20051;-82
2022/03/25 15:52:12;;;;;;;35.25;23.48;;;;;;;14.93;38.13;102922.94;4688044;28;20061;-84
2022/03/25 15:55:30;;;;;;;34.15;23.85;;;;;;;14.94;39.32;102934.19;4701625;30;20073;-81
2022/03/25 16:01:24;;;;;;;35.53;25.00;;;;;;;14.26;40.14;102819.53;4702366;30;20072;-81
2022/03/25 16:04:07;;;;;;;37.25;24.75;;;;;;;14.01;40.31;102783.44;4701897;30;20068;-80
2022/03/25 16:06:45;;;;;;;43.00;25.05;;;;;;;14.22;39.51;102817.97;4701616;30;20065;-81
2022/03/25 16:15:56;;;;;;;35.50;23.67;;;;;;;13.99;40.54;102806.06;4682775;30;20091;-81
2022/03/25 16:18:41;;;;;;;34.72;23.73;;;;;;;14.11;40.68;102833.22;4667900;30;20042;-83
2022/03/25 16:46:01;;;;;;;36.95;23.38;;;;;;;13.35;42.38;102780.34;4650623;30;20109;-87
2022/03/25 17:16:11;;;;;;;40.58;25.52;;;;;;;13.68;44.39;102948.56;4634915;31;20107;-88
2022/03/25 17:22:36;;;;;;;;;;;;;;;;;;;;;
2022/03/25 17:25:57;;;;;;;34.70;23.60;;;;;;;13.33;45.58;102940.47;4648954;30;20507;-83
2022/03/25 17:35:55;;;;;;;37.78;24.35;;;;;;;13.06;46.14;102949.31;4666247;30;20072;-82
2022/03/25 17:38:30;;;;;;;39.67;24.67;;;;;;;11.93;46.46;102780.91;4678632;30;20101;-75
2022/03/25 17:41:00;;;;;;;39.28;24.63;;;;;;;12.20;47.43;102850.72;4683435;30;20056;-76
2022/03/25 17:43:37;;;;;;;38.63;25.73;;;;;;;12.28;47.60;102890.94;4683001;30;20699;-77
2022/03/25 17:46:40;;;;;;;35.53;24.85;;;;;;;12.54;48.26;102959.94;4667901;30;20033;-81
2022/03/25 17:53:19;;;;;;;36.75;23.58;;;;;;;11.25;48.83;102797.13;4683238;30;20092;-83
2022/03/25 17:59:15;;;;;;;41.47;25.63;;;;;;;11.23;49.46;102842.06;4682632;30;20049;-76
2022/03/25 18:01:56;;;;;;;38.88;24.17;;;;;;;11.45;50.52;102900.78;4682809;30;20049;-77
2022/03/25 18:11:49;;;;;;;39.47;23.33;;;;;;;11.62;50.29;102971.81;4665220;30;20497;-78
2022/03/25 18:14:17;;;;;;;41.42;24.48;;;;;;;10.46;51.46;102813.50;4665807;30;20042;-76
2022/03/25 18:33:59;;;;;;;36.35;23.40;;;;;;;10.73;52.66;102978.91;4665300;30;19975;-76
2022/03/25 18:37:14;;;;;;;38.72;23.75;;;;;;;10.69;53.03;102985.06;4665487;30;20126;-76
2022/03/25 18:40:13;;;;;;;37.83;22.77;;;;;;;10.59;53.57;102977.56;4664726;30;20082;-76
2022/03/25 18:42:39;;;;;;;40.38;24.20;;;;;;;9.53;53.94;102816.13;4665090;30;20129;-76
2022/03/25 18:45:42;;;;;;;37.13;23.05;;;;;;;10.48;53.88;102987.34;4665282;30;20158;-76
2022/03/25 18:51:54;;;;;;;40.33;23.77;;;;;;;10.36;53.89;102989.44;4665365;30;20057;-76
2022/03/25 18:54:54;;;;;;;41.55;23.83;;;;;;;10.27;54.12;102995.69;4665085;30;20488;-80
2022/03/25 19:14:13;;;;;;;39.40;22.23;;;;;;;9.60;55.87;102976.75;4668254;30;20051;-75
2022/03/25 19:16:42;;;;;;;37.33;23.90;;;;;;;8.61;56.27;102827.88;4668297;30;20033;-76
2022/03/25 19:19:15;;;;;;;38.63;22.17;;;;;;;9.13;56.06;102916.84;4668053;30;20042;-75
2022/03/25 19:21:40;;;;;;;42.83;23.27;;;;;;;9.60;57.29;103007.72;4668170;30;20041;-76
2022/03/25 19:24:06;;;;;;;38.88;23.42;;;;;;;9.31;56.85;102965.41;4667995;30;20027;-76
2022/03/25 19:26:32;;;;;;;38.45;24.20;;;;;;;9.45;57.40;102991.72;4668270;30;20153;-75
2022/03/25 19:28:57;;;;;;;35.50;21.92;;;;;;;9.53;57.47;103014.72;4667864;30;20113;-78
2022/03/25 19:31:25;;;;;;;41.00;23.45;;;;;;;9.34;57.62;102985.97;4667934;30;20100;-76
2022/03/25 19:33:51;;;;;;;43.15;22.60;;;;;;;9.53;57.69;103017.31;4668216;30;20039;-75
2022/03/25 19:36:17;;;;;;;38.42;24.17;;;;;;;9.23;58.04;102976.78;4667843;30;20544;-76
2022/03/25 19:38:43;;;;;;;39.13;24.65;;;;;;;9.47;57.85;103020.91;4667561;30;20066;-75
2022/03/25 19:41:08;;;;;;;42.88;23.35;;;;;;;9.34;57.80;103005.72;4667844;30;20480;-76
2022/03/25 19:43:34;;;;;;;39.05;24.15;;;;;;;9.33;58.27;103004.03;4667705;30;20381;-76
2022/03/25 19:46:04;;;;;;;38.67;23.27;;;;;;;9.34;58.79;103023.78;4668029;30;20045;-76
2022/03/25 19:48:30;;;;;;;38.47;23.67;;;;;;;9.22;58.71;103012.00;4667901;30;20057;-76
2022/03/25 19:50:56;;;;;;;38.67;22.75;;;;;;;9.05;58.82;102996.09;4667795;30;20392;-76
2022/03/25 19:53:22;;;;;;;41.75;25.70;;;;;;;9.16;59.44;103040.53;4667754;30;20034;-76
2022/03/25 19:55:49;;;;;;;42.85;24.23;;;;;;;9.07;59.86;103045.88;4667619;30;20404;-76
2022/03/25 19:58:16;;;;;;;42.13;24.20;;;;;;;9.08;59.35;103043.25;4667390;30;20403;-76
2022/03/25 20:00:42;;;;;;;38.38;23.52;;;;;;;9.11;59.51;103039.75;4667577;30;20034;-76
2022/03/25 20:03:08;;;;;;;39.83;23.75;;;;;;;8.97;59.36;103016.88;4667267;30;20133;-77
2022/03/25 20:05:33;;;;;;;41.17;24.85;;;;;;;8.90;59.27;103011.00;4667449;30;20038;-75
2022/03/25 20:07:58;;;;;;;42.40;25.17;;;;;;;9.12;58.90;103042.31;4667198;30;20400;-76
2022/03/25 20:10:24;;;;;;;41.50;22.50;;;;;;;8.87;59.07;103003.34;4667413;30;20038;-76
2022/03/25 20:12:51;;;;;;;38.85;23.85;;;;;;;8.80;59.14;103006.06;4667588;30;20408;-76
2022/03/25 20:15:17;;;;;;;40.22;24.23;;;;;;;9.04;59.29;103051.06;4665680;30;20081;-75
2022/03/25 20:17:42;;;;;;;40.83;23.73;;;;;;;9.00;59.54;103054.59;4666661;30;20073;-76
2022/03/25 20:20:08;;;;;;;39.90;24.25;;;;;;;8.80;59.34;103026.69;4667029;30;20038;-74
2022/03/25 20:22:34;;;;;;;44.63;24.42;;;;;;;8.63;58.66;102993.53;4667546;30;20062;-73
2022/03/25 20:24:59;;;;;;;46.40;25.30;;;;;;;8.90;58.46;103029.03;4667402;30;20502;-77
2022/03/25 20:27:25;;;;;;;41.67;23.88;;;;;;;9.08;58.63;103050.16;4667332;30;20099;-77
2022/03/25 20:29:52;;;;;;;40.72;24.95;;;;;;;9.19;58.37;103069.66;4667349;30;20035;-76
2022/03/25 20:32:19;;;;;;;42.75;24.48;;;;;;;9.23;58.49;103074.72;4666973;30;20035;-74
2022/03/25 20:34:44;;;;;;;42.17;24.75;;;;;;;8.97;58.51;103029.75;4667136;30;20400;-79
2022/03/25 20:37:09;;;;;;;42.38;24.40;;;;;;;9.10;58.81;103044.06;4667360;30;20046;-80
2022/03/25 20:39:38;;;;;;;46.22;26.40;;;;;;;9.02;59.06;103032.22;4679936;30;20050;-77
2022/03/25 20:42:09;;;;;;;43.28;25.38;;;;;;;9.08;59.19;103042.41;4666960;30;20115;-78
2022/03/25 20:44:35;;;;;;;41.33;25.38;;;;;;;9.09;59.59;103054.41;4665526;30;20099;-78
2022/03/25 20:47:01;;;;;;;41.60;24.95;;;;;;;9.16;60.01;103079.19;4666661;30;20034;-77
2022/03/25 20:49:28;;;;;;;38.05;24.15;;;;;;;9.08;60.42;103071.63;4665558;30;20034;-77
2022/03/25 20:51:54;;;;;;;44.40;25.88;;;;;;;9.05;60.72;103076.84;4666907;30;20077;-77
2022/03/25 20:54:19;;;;;;;44.60;25.55;;;;;;;8.98;61.07;103077.84;4666779;30;20034;-77
2022/03/25 20:56:49;;;;;;;41.35;24.42;;;;;;;8.87;61.10;103072.06;4666375;30;20061;-77
2022/03/25 20:59:15;;;;;;;38.90;24.58;;;;;;;8.55;61.17;103016.00;4666504;30;20492;-76
2022/03/25 21:01:41;;;;;;;40.88;24.45;;;;;;;8.95;61.39;103085.66;4666774;30;20031;-76
2022/03/25 21:04:06;;;;;;;39.10;23.73;;;;;;;8.78;61.58;103062.78;4666491;30;20038;-75
2022/03/25 21:10:08;;;;;;;40.63;23.25;;;;;;;8.86;61.33;103086.66;4646820;30;20047;-77
2022/03/25 21:12:34;;;;;;;42.70;25.02;;;;;;;8.44;62.37;103028.22;4647460;30;20129;-77
2022/03/25 21:15:00;;;;;;;41.25;23.98;;;;;;;7.86;62.81;102942.63;4647056;30;20051;-77
2022/03/25 21:17:44;;;;;;;41.28;23.67;;;;;;;7.66;62.42;102916.41;4647272;30;20106;-77
2022/03/25 21:20:33;;;;;;;41.72;23.73;;;;;;;8.16;62.22;103012.41;4632930;30;20038;-76
2022/03/25 21:27:13;;;;;;;41.42;22.05;;;;;;;8.53;63.02;103093.28;4648205;30;20074;-76
2022/03/25 21:33:41;;;;;;;35.00;22.42;;;;;;;8.44;63.47;103092.59;4647367;30;20134;-77
2022/03/25 21:43:34;;;;;;;35.00;19.73;;;;;;;8.37;62.72;103114.22;4646911;30;20058;-77
2022/03/25 21:46:00;;;;;;;34.00;20.15;;;;;;;8.38;62.85;103103.03;4652448;30;20094;-77
2022/03/25 21:48:26;;;;;;;39.78;21.63;;;;;;;8.37;63.28;103104.75;4650166;30;20175;-77
2022/03/25 21:50:52;;;;;;;35.35;20.70;;;;;;;8.16;62.83;103075.06;4665971;30;20077;-77
2022/03/25 21:53:20;;;;;;;33.80;20.58;;;;;;;8.23;62.90;103089.50;4665139;30;20050;-77
2022/03/25 21:55:47;;;;;;;36.95;19.85;;;;;;;8.29;62.72;103094.56;4665717;30;20472;-78
2022/03/25 21:58:15;;;;;;;39.30;21.17;;;;;;;7.91;62.73;103037.72;4650310;30;20066;-78
2022/03/25 22:00:41;;;;;;;36.95;20.40;;;;;;;8.01;62.46;103067.56;4665362;30;20113;-77
2022/03/25 22:03:09;;;;;;;37.47;21.25;;;;;;;8.04;62.49;103059.78;4665474;30;20041;-77
2022/03/25 22:05:36;;;;;;;35.63;21.20;;;;;;;8.30;62.55;103114.25;4636409;30;20041;-77
2022/03/25 22:08:02;;;;;;;35.08;20.08;;;;;;;7.94;62.70;103055.69;4665372;30;20042;-78
2022/03/25 22:10:28;;;;;;;33.17;19.67;;;;;;;8.24;62.59;103116.09;4650485;30;20045;-78